createdAt,value
2023-01-10T00:02:21.453Z,100882.25
2023-01-10T00:04:50.093Z,100878.34
2023-01-10T00:07:20.158Z,100881.77
2023-01-10T00:09:50.114Z,100894.61
2023-01-10T00:12:37.611Z,100885.58
2023-01-10T00:15:07.204Z,100882.52
2023-01-10T00:17:37.199Z,100890.58
2023-01-10T00:20:07.036Z,100888.86
2023-01-10T00:22:35.819Z,100884.83
2023-01-10T00:25:06.126Z,100891.55
2023-01-10T00:27:35.780Z,100889.13
2023-01-10T00:30:08.757Z,100888.16
2023-01-10T00:32:38.544Z,100887.30
2023-01-10T00:35:09.264Z,100889.02
2023-01-10T00:37:38.874Z,100893.53
2023-01-10T00:40:08.911Z,100884.61
2023-01-10T00:42:56.661Z,100884.50
2023-01-10T00:45:26.657Z,100872.78
2023-01-10T00:47:55.404Z,100880.09
2023-01-10T00:50:24.162Z,100877.89
2023-01-10T00:52:52.883Z,100878.86
2023-01-10T00:55:21.650Z,100884.61
2023-01-10T00:57:50.897Z,100879.23
2023-01-10T01:00:20.312Z,100882.89
2023-01-10T01:02:51.586Z,100884.34
2023-01-10T01:05:20.460Z,100885.58
2023-01-10T01:07:52.610Z,100879.23
2023-01-10T01:10:27.278Z,100882.30
2023-01-10T01:12:59.757Z,100879.98
2023-01-10T01:15:29.351Z,100878.64
2023-01-10T01:17:58.079Z,100886.70
2023-01-10T01:20:27.261Z,100885.95
2023-01-10T01:22:56.032Z,100877.14
2023-01-10T01:25:24.773Z,100884.94
2023-01-10T01:27:53.960Z,100874.78
2023-01-10T01:30:23.149Z,100877.69
2023-01-10T01:32:53.084Z,100879.14
2023-01-10T01:35:25.043Z,100885.86
2023-01-10T01:37:55.305Z,100880.11
2023-01-10T01:40:24.079Z,100882.69
2023-01-10T01:42:55.995Z,100875.22
2023-01-10T01:45:37.636Z,100869.95
2023-01-10T01:48:21.866Z,100872.16
2023-01-10T01:50:56.082Z,100883.39
2023-01-10T01:53:41.496Z,100876.30
2023-01-10T01:56:18.121Z,100874.58
2023-01-10T01:58:52.041Z,100883.88
2023-01-10T02:01:22.251Z,100893.39
2023-01-10T02:03:55.633Z,100894.73
2023-01-10T02:06:26.665Z,100893.77
2023-01-10T02:09:05.035Z,100897.05
2023-01-10T02:11:35.218Z,100887.75
2023-01-10T02:14:04.972Z,100882.11
2023-01-10T02:16:33.677Z,100886.14
2023-01-10T02:19:02.565Z,100881.36
2023-01-10T02:21:39.670Z,100892.00
2023-01-10T02:24:25.615Z,100878.19
2023-01-10T02:27:01.991Z,100877.44
2023-01-10T02:30:00.538Z,100869.48
2023-01-10T02:33:00.529Z,100866.64
2023-01-10T02:35:56.852Z,100869.33
2023-01-10T02:38:41.506Z,100877.17
2023-01-10T02:41:24.637Z,100885.82
2023-01-10T02:44:18.276Z,100880.07
2023-01-10T02:46:47.045Z,100887.38
2023-01-10T02:49:15.931Z,100899.09
2023-01-10T02:51:44.656Z,100886.52
2023-01-10T02:54:21.842Z,100904.84
2023-01-10T02:57:23.536Z,100913.38
2023-01-10T03:00:16.045Z,100913.86
2023-01-10T03:03:08.062Z,100915.20
2023-01-10T03:05:59.105Z,100911.07
2023-01-10T03:08:46.372Z,100915.58
2023-01-10T03:11:15.177Z,100918.27
2023-01-10T03:13:52.823Z,100910.59
2023-01-10T03:16:27.716Z,100914.99
2023-01-10T03:19:06.499Z,100917.30
2023-01-10T03:21:36.718Z,100933.05
2023-01-10T03:24:18.987Z,100933.42
2023-01-10T03:27:04.346Z,100935.52
2023-01-10T03:29:39.778Z,100942.23
2023-01-10T03:32:08.433Z,100936.86
2023-01-10T03:34:37.281Z,100932.45
2023-01-10T03:37:17.402Z,100945.89
2023-01-10T03:40:00.963Z,100946.37
2023-01-10T03:43:09.191Z,100947.61
2023-01-10T03:45:49.762Z,100938.58
2023-01-10T03:48:18.471Z,100931.27
2023-01-10T03:50:47.391Z,100939.33
2023-01-10T03:53:16.051Z,100939.70
2023-01-10T03:55:46.508Z,100942.29
2023-01-10T03:58:17.192Z,100949.00
2023-01-10T04:00:45.857Z,100941.33
2023-01-10T04:03:16.809Z,100948.25
2023-01-10T04:06:04.317Z,100946.16
2023-01-10T04:08:33.892Z,100951.36
2023-01-10T04:11:02.691Z,100949.00
2023-01-10T04:13:31.732Z,100950.17
2023-01-10T04:16:01.632Z,100953.28
2023-01-10T04:18:30.567Z,100958.76
2023-01-10T04:20:59.463Z,100958.48
2023-01-10T04:23:28.195Z,100961.86
2023-01-10T04:25:56.920Z,100959.45
2023-01-10T04:28:25.547Z,100966.00
2023-01-10T04:30:54.511Z,100963.41
2023-01-10T04:33:23.159Z,100965.14
2023-01-10T04:35:52.189Z,100970.98
2023-01-10T04:38:20.863Z,100965.23
2023-01-10T04:40:55.223Z,100967.17
2023-01-10T04:43:24.664Z,100973.50
2023-01-10T04:45:54.327Z,100981.17
2023-01-10T04:48:23.799Z,100983.48
2023-01-10T04:50:53.456Z,100990.78
2023-01-10T04:53:22.114Z,100992.22
2023-01-10T04:55:51.468Z,101004.41
2023-01-10T04:58:21.320Z,101006.33
2023-01-10T05:00:50.566Z,101005.19
2023-01-10T05:03:20.023Z,101013.45
2023-01-10T05:05:50.305Z,101011.14
2023-01-10T05:08:19.315Z,101005.59
2023-01-10T05:10:48.048Z,101026.79
2023-01-10T05:13:17.447Z,101022.97
2023-01-10T05:15:46.535Z,101015.11
2023-01-10T05:18:15.669Z,101009.84
2023-01-10T05:20:44.525Z,101015.52
2023-01-10T05:23:13.406Z,101012.85
2023-01-10T05:25:42.609Z,101013.15
2023-01-10T05:28:12.318Z,101022.36
2023-01-10T05:30:42.630Z,101027.06
2023-01-10T05:33:11.163Z,101028.66
2023-01-10T05:35:39.860Z,101028.58
2023-01-10T05:38:10.146Z,101033.75
2023-01-10T05:40:38.867Z,101027.91
2023-01-10T05:43:08.063Z,101036.44
2023-01-10T05:45:38.326Z,101042.95
2023-01-10T05:48:07.353Z,101043.63
2023-01-10T05:50:37.356Z,101046.59
2023-01-10T05:53:06.725Z,101054.54
2023-01-10T05:55:36.295Z,101044.58
2023-01-10T05:58:06.111Z,101064.11
2023-01-10T06:00:36.657Z,101064.67
2023-01-10T06:03:05.825Z,101060.79
2023-01-10T06:05:34.651Z,101071.69
2023-01-10T06:08:05.353Z,101061.64
2023-01-10T06:10:34.171Z,101071.20
2023-01-10T06:13:02.814Z,101067.08
2023-01-10T06:15:32.412Z,101076.81
2023-01-10T06:18:02.927Z,101074.50
2023-01-10T06:20:31.988Z,101069.80
2023-01-10T06:23:04.517Z,101076.59
2023-01-10T06:25:36.573Z,101089.59
2023-01-10T06:28:08.887Z,101091.11
2023-01-10T06:30:37.998Z,101084.20
2023-01-10T06:33:07.671Z,101090.34
2023-01-10T06:35:36.797Z,101094.92
2023-01-10T06:38:05.588Z,101083.23
2023-01-10T06:40:34.037Z,101095.56
2023-01-10T06:43:02.899Z,101100.32
2023-01-10T06:45:31.719Z,101094.84
2023-01-10T06:48:00.912Z,101097.39
2023-01-10T06:50:29.932Z,101107.11
2023-01-10T06:53:00.443Z,101104.61
2023-01-10T06:55:29.158Z,101121.78
2023-01-10T06:58:04.413Z,101120.83
2023-01-10T07:00:34.274Z,101121.05
2023-01-10T07:03:03.345Z,101132.23
2023-01-10T07:05:34.095Z,101122.81
2023-01-10T07:08:03.329Z,101127.09
2023-01-10T07:10:32.922Z,101137.09
2023-01-10T07:13:02.087Z,101144.51
2023-01-10T07:15:31.804Z,101144.59
2023-01-10T07:18:00.876Z,101144.59
2023-01-10T07:20:30.219Z,101151.19
2023-01-10T07:23:00.365Z,101150.55
2023-01-10T07:25:30.109Z,101150.55
2023-01-10T07:27:58.908Z,101150.94
2023-01-10T07:30:27.624Z,101154.48
2023-01-10T07:32:57.544Z,101155.34
2023-01-10T07:35:26.397Z,101151.33
2023-01-10T07:37:59.977Z,101151.94
2023-01-10T07:40:28.937Z,101151.94
2023-01-10T07:43:00.852Z,101149.40
2023-01-10T07:45:30.552Z,101154.27
2023-01-10T07:48:01.388Z,101154.27
2023-01-10T07:50:34.064Z,101149.09
2023-01-10T07:53:05.653Z,101155.78
2023-01-10T07:55:38.592Z,101145.86
2023-01-10T07:58:08.348Z,101153.11
2023-01-10T08:00:39.285Z,101153.11
2023-01-10T08:03:09.895Z,101163.16
2023-01-10T08:05:38.982Z,101166.09
2023-01-10T08:08:09.696Z,101166.09
2023-01-10T08:10:39.905Z,101161.91
2023-01-10T08:13:18.444Z,101177.55
2023-01-10T08:15:40.632Z,101177.55
2023-01-10T08:18:10.750Z,101172.88
2023-01-10T08:20:39.548Z,101178.02
2023-01-10T08:23:08.273Z,101182.89
2023-01-10T08:25:39.578Z,101183.75
2023-01-10T08:28:08.758Z,101192.48
2023-01-10T08:30:37.717Z,101183.20
2023-01-10T08:33:07.006Z,101191.48
2023-01-10T08:35:40.312Z,101191.48
2023-01-10T08:38:10.281Z,101188.94
2023-01-10T08:40:39.156Z,101187.43
2023-01-10T08:43:11.256Z,101185.75
2023-01-10T08:45:40.498Z,101173.75
2023-01-10T08:48:10.601Z,101173.75
2023-01-10T08:50:39.359Z,101159.81
2023-01-10T08:53:08.509Z,101177.84
2023-01-10T08:55:38.019Z,101168.69
2023-01-10T08:58:07.363Z,101165.06
2023-01-10T09:00:36.310Z,101163.45
2023-01-10T09:03:09.727Z,101160.16
2023-01-10T09:05:40.998Z,101164.52
2023-01-10T09:08:10.408Z,101165.02
2023-01-10T09:10:39.055Z,101162.25
2023-01-10T09:13:09.431Z,101157.40
2023-01-10T09:15:40.812Z,101146.12
2023-01-10T09:18:11.959Z,101149.09
2023-01-10T09:20:41.902Z,101148.05
2023-01-10T09:23:15.667Z,101146.14
2023-01-10T09:25:44.945Z,101146.52
2023-01-10T09:28:14.631Z,101153.31
2023-01-10T09:30:43.514Z,101152.45
2023-01-10T09:33:12.552Z,101164.21
2023-01-10T09:35:42.673Z,101158.38
2023-01-10T09:38:16.800Z,101159.83
2023-01-10T09:41:14.458Z,101172.57
2023-01-10T09:43:59.272Z,101165.87
2023-01-10T09:46:45.850Z,101166.26
2023-01-10T09:49:50.300Z,101167.36
2023-01-10T09:52:24.264Z,101179.80
2023-01-10T09:54:53.503Z,101186.14
2023-01-10T09:57:22.936Z,101180.89
2023-01-10T09:59:54.051Z,101190.77
2023-01-10T10:02:43.188Z,101177.09
2023-01-10T10:05:19.112Z,101180.45
2023-01-10T10:07:52.791Z,101180.17
2023-01-10T10:10:26.180Z,101174.34
2023-01-10T10:13:19.877Z,101177.80
2023-01-10T10:16:21.860Z,101167.75
2023-01-10T17:49:27.718Z,101308.23
2023-01-10T17:51:58.832Z,101315.90
2023-01-10T17:54:27.998Z,101311.11
2023-01-10T17:56:57.814Z,101308.80
2023-01-10T17:59:27.289Z,101321.55
2023-01-10T18:01:56.477Z,101309.95
2023-01-10T18:04:26.128Z,101312.25
2023-01-10T18:06:54.992Z,101320.78
2023-01-10T18:09:25.111Z,101304.29
2023-01-10T18:11:55.877Z,101301.41
2023-01-10T18:14:38.713Z,101315.86
2023-01-10T18:17:10.704Z,101315.45
2023-01-10T18:19:41.188Z,101317.08
2023-01-10T18:22:28.479Z,101316.78
2023-01-10T18:24:57.532Z,101323.73
2023-01-10T18:27:26.837Z,101330.52
2023-01-10T18:29:56.256Z,101325.05
2023-01-10T18:32:27.019Z,101329.79
2023-01-10T18:34:55.631Z,101328.98
2023-01-10T18:37:24.695Z,101327.78
2023-01-10T18:39:54.909Z,101322.78
2023-01-10T18:42:25.031Z,101335.58
2023-01-10T18:44:54.264Z,101345.14
2023-01-10T18:47:23.736Z,101351.06
2023-01-10T18:49:52.916Z,101349.34
2023-01-10T18:52:25.035Z,101353.09
2023-01-10T18:54:53.588Z,101361.00
2023-01-10T18:57:24.187Z,101346.73
2023-01-10T18:59:53.482Z,101345.56
2023-01-10T19:02:24.658Z,101354.16
2023-01-10T19:04:53.691Z,101345.05
2023-01-10T19:07:26.678Z,101349.53
2023-01-10T19:09:56.017Z,101345.21
2023-01-10T19:12:25.269Z,101348.31
2023-01-10T19:14:55.221Z,101346.92
2023-01-10T19:17:24.865Z,101350.88
2023-01-10T19:19:55.204Z,101350.88
2023-01-10T19:22:24.930Z,101352.77
2023-01-10T19:24:54.739Z,101352.55
2023-01-10T19:27:23.912Z,101357.25
2023-01-10T19:29:53.400Z,101363.41
2023-01-10T19:32:22.402Z,101362.31
2023-01-10T19:34:51.711Z,101372.94
2023-01-10T19:37:21.564Z,101365.77
2023-01-10T19:39:51.234Z,101368.53
2023-01-10T19:42:20.697Z,101368.84
2023-01-10T19:44:50.346Z,101376.09
2023-01-10T19:47:20.692Z,101376.09
2023-01-10T19:49:50.833Z,101380.34
2023-01-10T19:52:20.211Z,101376.88
2023-01-10T19:54:49.282Z,101372.55
2023-01-10T19:57:18.477Z,101374.52
2023-01-10T19:59:49.478Z,101374.52
2023-01-10T20:02:19.499Z,101382.00
2023-01-10T20:04:48.606Z,101396.64
2023-01-10T20:07:18.773Z,101387.05
2023-01-10T20:09:49.146Z,101402.47
2023-01-10T20:12:19.199Z,101409.70
2023-01-10T20:14:51.792Z,101406.55
2023-01-10T20:17:21.038Z,101406.55
2023-01-10T20:19:49.885Z,101404.74
2023-01-10T20:22:20.793Z,101416.78
2023-01-10T20:24:51.468Z,101426.06
2023-01-10T20:27:21.390Z,101415.37
2023-01-10T20:29:51.318Z,101419.06
2023-01-10T20:32:21.073Z,101425.38
2023-01-10T20:34:50.845Z,101425.38
2023-01-10T20:37:23.821Z,101416.65
2023-01-10T20:39:53.941Z,101418.45
2023-01-10T20:42:22.932Z,101413.27
2023-01-10T20:44:51.791Z,101415.06
2023-01-10T20:47:22.645Z,101421.64
2023-01-10T20:49:52.012Z,101421.64
2023-01-10T20:52:21.639Z,101431.31
2023-01-10T20:54:50.519Z,101433.67
2023-01-10T20:57:20.041Z,101429.27
2023-01-10T20:59:49.653Z,101432.63
2023-01-10T21:02:19.082Z,101433.25
2023-01-10T21:04:50.659Z,101441.12
2023-01-10T21:07:19.753Z,101442.92
2023-01-10T21:09:50.377Z,101444.41
2023-01-10T21:12:23.190Z,101444.41
2023-01-10T21:14:53.475Z,101443.22
2023-01-10T21:17:23.304Z,101444.88
2023-01-10T21:19:53.373Z,101451.63
2023-01-10T21:22:23.437Z,101448.96
2023-01-10T21:24:53.089Z,101453.05
2023-01-10T21:27:24.391Z,101454.13
2023-01-10T21:29:54.348Z,101458.61
2023-01-10T21:32:24.365Z,101455.94
2023-01-10T21:34:53.498Z,101457.67
2023-01-10T21:37:22.458Z,101463.95
2023-01-10T21:39:53.702Z,101464.89
2023-01-10T21:42:34.912Z,101459.94
2023-01-10T21:45:06.878Z,101459.94
2023-01-10T21:47:38.436Z,101462.36
2023-01-10T21:50:10.876Z,101462.36
2023-01-10T21:52:42.490Z,101466.84
2023-01-10T21:55:14.231Z,101466.77
2023-01-10T21:57:43.898Z,101468.18
2023-01-10T22:00:14.886Z,101479.59
2023-01-10T22:02:44.253Z,101477.09
2023-01-10T22:05:13.951Z,101482.37
2023-01-10T22:07:44.935Z,101483.56
2023-01-10T22:10:14.817Z,101487.09
2023-01-10T22:12:43.877Z,101487.09
2023-01-10T22:15:13.795Z,101474.35
2023-01-10T22:17:43.656Z,101488.19
2023-01-10T22:20:13.418Z,101495.88
2023-01-10T22:22:42.914Z,101496.67
2023-01-10T22:25:11.851Z,101501.87
2023-01-10T22:27:44.153Z,101501.08
2023-01-10T22:30:13.360Z,101501.08
2023-01-10T22:32:43.165Z,101491.36
2023-01-10T22:35:14.585Z,101494.58
2023-01-10T22:37:43.864Z,101494.58
2023-01-10T22:40:13.042Z,101494.03
2023-01-10T22:42:43.940Z,101501.91
2023-01-10T22:45:13.112Z,101507.58
2023-01-10T22:47:42.448Z,101511.52
2023-01-10T22:50:13.838Z,101511.52
2023-01-10T22:52:43.189Z,101514.66
2023-01-10T22:55:12.951Z,101514.66
2023-01-10T22:57:47.229Z,101519.86
2023-01-10T23:00:14.870Z,101524.41
2023-01-10T23:02:44.342Z,101511.59
2023-01-10T23:05:13.732Z,101515.27
2023-01-10T23:07:44.194Z,101517.62
2023-01-10T23:10:29.123Z,101517.62
2023-01-10T23:12:46.188Z,101506.89
2023-01-10T23:15:17.713Z,101509.23
2023-01-10T23:17:46.961Z,101511.91
2023-01-10T23:20:17.493Z,101504.11
2023-01-10T23:22:46.893Z,101503.97
2023-01-10T23:25:16.828Z,101492.55
2023-01-10T23:27:46.254Z,101492.55
2023-01-10T23:30:15.903Z,101489.48
2023-01-10T23:32:46.064Z,101493.85
2023-01-10T23:35:15.688Z,101493.85
2023-01-10T23:37:45.762Z,101500.73
2023-01-10T23:40:14.698Z,101494.67
2023-01-10T23:42:44.464Z,101509.00
2023-01-10T23:45:14.367Z,101509.61
2023-01-10T23:47:44.417Z,101520.98
2023-01-10T23:50:13.972Z,101520.31
2023-01-10T23:52:43.505Z,101520.31
2023-01-10T23:55:13.865Z,101517.56
2023-01-10T23:57:43.425Z,101527.39
